createdAt,value
2023-04-13T00:04:42.978Z,25.33
2023-04-13T00:09:47.347Z,26.67
2023-04-13T00:14:50.993Z,27.10
2023-04-13T00:19:59.510Z,24.87
2023-04-13T00:25:01.938Z,25.63
2023-04-13T00:30:07.509Z,33.07
2023-04-13T00:35:12.031Z,24.67
2023-04-13T00:40:16.768Z,30.00
2023-04-13T00:45:19.919Z,24.93
2023-04-13T00:50:22.558Z,28.77
2023-04-13T00:55:25.165Z,27.27
2023-04-13T01:00:27.759Z,26.20
2023-04-13T01:05:43.279Z,29.17
2023-04-13T01:11:06.122Z,26.17
2023-04-13T01:16:20.575Z,29.57
2023-04-13T01:21:28.832Z,27.33
2023-04-13T01:26:43.962Z,41.10
2023-04-13T01:31:47.078Z,28.43
2023-04-13T01:36:51.682Z,29.90
2023-04-13T01:41:54.348Z,31.63
2023-04-13T01:47:15.625Z,31.93
2023-04-13T01:52:41.567Z,25.13
2023-04-13T01:57:48.802Z,26.60
2023-04-13T02:02:54.453Z,25.80
2023-04-13T02:07:57.147Z,24.93
2023-04-13T02:12:59.740Z,26.93
2023-04-13T02:18:02.462Z,25.30
2023-04-13T02:23:04.996Z,26.97
2023-04-13T02:28:09.115Z,27.13
2023-04-13T02:33:11.538Z,26.73
2023-04-13T02:38:15.675Z,26.70
2023-04-13T02:43:21.610Z,23.70
2023-04-13T02:48:24.126Z,29.60
2023-04-13T02:53:27.236Z,29.33
2023-04-13T02:58:35.206Z,34.10
2023-04-13T03:03:42.036Z,26.57
2023-04-13T03:08:46.378Z,31.10
2023-04-13T03:13:54.660Z,36.43
2023-04-13T03:18:57.223Z,24.60
2023-04-13T03:24:00.978Z,23.67
2023-04-13T03:29:04.242Z,26.10
2023-04-13T03:34:10.808Z,38.50
2023-04-13T03:39:14.414Z,28.57
2023-04-13T03:44:17.113Z,24.83
2023-04-13T03:49:19.857Z,29.03
2023-04-13T03:54:22.435Z,22.67
2023-04-13T03:59:26.031Z,25.37
2023-04-13T04:04:28.838Z,20.20
2023-04-13T04:09:32.166Z,25.67
2023-04-13T04:14:34.757Z,25.20
2023-04-13T04:19:59.907Z,23.63
2023-04-13T04:25:02.497Z,28.13
2023-04-13T04:30:11.124Z,25.83
2023-04-13T04:35:14.608Z,25.57
2023-04-13T04:40:24.299Z,26.07
2023-04-13T04:45:27.913Z,34.83
2023-04-13T04:50:33.562Z,27.13
2023-04-13T04:55:46.948Z,24.80
2023-04-13T05:01:01.085Z,28.13
2023-04-13T05:06:05.801Z,22.33
2023-04-13T05:11:09.526Z,30.20
2023-04-13T05:16:12.852Z,29.90
2023-04-13T05:21:16.817Z,20.77
2023-04-13T05:26:29.082Z,26.87
2023-04-13T05:31:31.683Z,23.67
2023-04-13T05:36:34.269Z,25.23
2023-04-13T05:41:41.195Z,29.67
2023-04-13T05:46:43.773Z,25.43
2023-04-13T05:51:46.332Z,27.27
2023-04-13T05:56:48.872Z,27.60
2023-04-13T06:01:52.302Z,23.93
2023-04-13T06:06:56.045Z,23.67
2023-04-13T06:11:58.577Z,21.60
2023-04-13T06:17:01.472Z,25.70
2023-04-13T06:22:03.960Z,25.43
2023-04-13T06:27:13.865Z,21.40
2023-04-13T06:32:19.530Z,25.53
2023-04-13T06:37:22.418Z,22.77
2023-04-13T06:42:26.969Z,29.13
2023-04-13T06:47:56.051Z,27.20
2023-04-13T06:53:00.726Z,25.40
2023-04-13T06:58:03.614Z,26.63
2023-04-13T07:03:06.208Z,25.40
2023-04-13T07:08:13.137Z,25.27
2023-04-13T07:13:18.419Z,40.47
2023-04-13T07:18:21.782Z,69.70
2023-04-13T07:23:25.146Z,31.20
2023-04-13T07:28:28.140Z,34.80
2023-04-13T07:33:33.230Z,26.13
2023-04-13T07:38:35.686Z,94.93
2023-04-13T07:43:38.486Z,194.37
2023-04-13T07:48:46.343Z,72.47
2023-04-13T07:53:58.047Z,59.27
2023-04-13T07:59:02.955Z,105.70
2023-04-13T08:04:08.301Z,56.73
2023-04-13T08:09:12.156Z,47.70
2023-04-13T08:14:15.242Z,22.67
2023-04-13T08:19:18.191Z,18.07
2023-04-13T08:24:25.636Z,16.57
2023-04-13T08:29:28.908Z,47.50
2023-04-13T08:34:32.654Z,17.43
2023-04-13T08:39:38.118Z,63.23
2023-04-13T08:44:43.205Z,34.60
2023-04-13T08:49:48.883Z,20.70
2023-04-13T08:54:55.775Z,23.63
2023-04-13T09:00:06.645Z,16.43
2023-04-13T09:05:16.545Z,27.67
2023-04-13T09:10:25.966Z,37.33
2023-04-13T09:15:30.854Z,13.93
2023-04-13T09:20:58.736Z,9.40
2023-04-13T09:26:10.587Z,14.47
2023-04-13T09:31:13.845Z,13.95
2023-04-13T09:41:53.090Z,10.23
2023-04-13T09:47:03.533Z,8.60
2023-04-13T09:52:28.269Z,11.97
2023-04-13T09:57:32.411Z,5.87
2023-04-13T10:02:36.040Z,3.27
2023-04-13T10:07:40.261Z,4.50
2023-04-13T10:12:55.040Z,5.00
2023-04-13T10:18:26.099Z,6.57
2023-04-13T10:23:32.166Z,4.50
2023-04-13T10:28:44.976Z,7.13
2023-04-13T10:33:51.133Z,3.47
2023-04-13T10:38:53.563Z,3.90
2023-04-13T10:44:07.125Z,4.80
2023-04-13T10:49:09.769Z,5.23
2023-04-13T10:54:14.243Z,18.10
2023-04-13T10:59:17.028Z,18.00
2023-04-13T11:04:19.699Z,25.20
2023-04-13T11:09:22.863Z,19.17
2023-04-13T11:14:25.527Z,13.83
2023-04-13T11:19:27.950Z,14.83
2023-04-13T11:24:34.300Z,19.37
2023-04-13T11:29:36.960Z,15.40
2023-04-13T11:34:39.518Z,7.47
2023-04-13T11:39:44.542Z,27.10
2023-04-13T11:44:47.308Z,11.10
2023-04-13T11:49:50.528Z,9.17
2023-04-13T11:54:54.386Z,85.57
2023-04-13T11:59:57.156Z,6.93
2023-04-13T12:05:01.682Z,6.27
2023-04-13T12:10:06.230Z,6.97
2023-04-13T12:15:22.853Z,6.30
2023-04-13T12:20:37.986Z,7.03
2023-04-13T12:25:42.038Z,6.30
2023-04-13T12:30:47.315Z,9.43
2023-04-13T12:35:49.729Z,101.03
2023-04-13T12:40:59.380Z,35.90
2023-04-13T12:46:02.187Z,33.30
2023-04-13T12:51:04.924Z,6.63
2023-04-13T12:56:07.741Z,29.83
2023-04-13T13:01:10.647Z,26.30
2023-04-13T13:06:13.081Z,11.17
2023-04-13T13:11:15.550Z,16.90
2023-04-13T13:16:35.948Z,9.53
2023-04-13T13:21:38.492Z,5.40
2023-04-13T13:31:48.328Z,26.50
2023-04-13T13:36:50.789Z,3.42
2023-04-13T13:41:53.244Z,3.93
2023-04-13T13:46:55.789Z,3.13
2023-04-13T13:52:01.086Z,6.90
2023-04-13T13:57:07.920Z,6.97
2023-04-13T14:02:10.515Z,4.40
2023-04-13T14:07:13.207Z,4.37
2023-04-13T14:12:16.075Z,5.40
2023-04-13T14:17:18.525Z,8.63
2023-04-13T14:22:21.508Z,7.17
2023-04-13T14:27:23.983Z,6.30
2023-04-13T14:32:26.774Z,6.07
2023-04-13T14:37:29.960Z,6.10
2023-04-13T14:42:32.408Z,7.43
2023-04-13T14:47:35.512Z,6.80
2023-04-13T14:52:38.048Z,4.40
2023-04-13T14:57:40.770Z,3.73
2023-04-13T15:02:43.340Z,4.37
2023-04-13T15:07:46.179Z,3.43
2023-04-13T15:12:48.618Z,1.93
2023-04-13T15:17:51.963Z,2.80
2023-04-13T15:22:55.817Z,5.53
2023-04-13T15:27:58.910Z,5.90
2023-04-13T15:33:02.925Z,2.60
2023-04-13T15:38:05.672Z,3.07
2023-04-13T15:43:08.175Z,2.77
2023-04-13T15:48:11.187Z,2.83
2023-04-13T15:53:13.717Z,3.10
2023-04-13T15:58:16.989Z,4.43
2023-04-13T16:03:19.590Z,5.43
2023-04-13T16:08:22.241Z,6.53
2023-04-13T16:13:28.319Z,4.03
2023-04-13T16:18:40.285Z,4.90
2023-04-13T16:23:43.866Z,2.80
2023-04-13T16:28:46.679Z,4.30
2023-04-13T16:33:55.614Z,4.67
2023-04-13T16:39:07.683Z,7.83
2023-04-13T16:44:10.114Z,7.87
2023-04-13T16:49:12.603Z,7.03
2023-04-13T16:54:16.475Z,6.40
2023-04-13T16:59:19.457Z,6.50
2023-04-13T17:04:21.951Z,7.63
2023-04-13T17:09:24.393Z,6.57
2023-04-13T17:14:27.052Z,7.97
2023-04-13T17:19:29.475Z,9.70
2023-04-13T17:24:32.458Z,12.27
2023-04-13T17:29:37.905Z,17.43
2023-04-13T17:34:44.805Z,21.47
2023-04-13T17:39:47.756Z,21.20
2023-04-13T17:44:50.381Z,14.43
2023-04-13T17:49:53.341Z,12.30
2023-04-13T17:54:55.766Z,19.00
2023-04-13T17:59:58.201Z,11.77
2023-04-13T18:05:00.706Z,8.70
2023-04-13T18:10:03.290Z,8.93
2023-04-13T18:15:07.194Z,21.03
2023-04-13T18:20:10.173Z,11.17
2023-04-13T18:25:12.621Z,25.37
2023-04-13T18:30:15.356Z,9.37
2023-04-13T18:35:18.633Z,10.13
2023-04-13T18:40:21.396Z,6.93
2023-04-13T18:45:23.899Z,6.97
2023-04-13T18:50:29.441Z,6.57
2023-04-13T18:55:32.002Z,7.30
2023-04-13T19:00:34.505Z,7.10
2023-04-13T19:05:37.067Z,5.63
2023-04-13T19:10:39.525Z,6.93
2023-04-13T19:15:41.968Z,9.67
2023-04-13T19:20:44.391Z,12.67
2023-04-13T19:25:46.853Z,11.90
2023-04-13T19:30:49.429Z,7.73
2023-04-13T19:35:52.540Z,5.40
2023-04-13T19:40:54.964Z,8.07
2023-04-13T19:45:57.512Z,7.60
2023-04-13T19:51:00.028Z,7.07
2023-04-13T19:56:06.029Z,6.33
2023-04-13T20:01:10.265Z,5.57
2023-04-13T20:06:12.961Z,8.17
2023-04-13T20:11:15.698Z,6.90
2023-04-13T20:16:18.524Z,7.57
2023-04-13T20:21:21.500Z,10.10
2023-04-13T20:26:27.885Z,8.53
2023-04-13T20:31:32.549Z,7.17
2023-04-13T20:36:35.005Z,9.10
2023-04-13T20:41:38.932Z,7.87
2023-04-13T20:46:49.414Z,7.23
2023-04-13T20:51:56.439Z,8.37
2023-04-13T20:56:59.002Z,6.83
2023-04-13T21:02:01.512Z,8.60
2023-04-13T21:07:04.252Z,6.73
2023-04-13T21:12:06.871Z,6.63
2023-04-13T21:17:09.390Z,5.83
2023-04-13T21:22:11.872Z,7.13
2023-04-13T21:27:14.481Z,8.03
2023-04-13T21:32:17.134Z,6.77
2023-04-13T21:37:19.680Z,8.70
2023-04-13T21:42:22.790Z,7.10
2023-04-13T21:47:25.410Z,7.03
2023-04-13T21:52:29.043Z,7.10
2023-04-13T21:57:31.738Z,6.13
2023-04-13T22:02:34.274Z,6.63
2023-04-13T22:07:42.395Z,8.80
2023-04-13T22:12:46.387Z,8.43
2023-04-13T22:17:48.895Z,6.87
2023-04-13T22:22:51.351Z,8.43
2023-04-13T22:27:54.478Z,6.73
2023-04-13T22:32:57.418Z,8.73
2023-04-13T22:37:59.862Z,9.40
2023-04-13T22:43:02.268Z,8.07
2023-04-13T22:48:05.030Z,10.00
2023-04-13T22:53:07.475Z,8.97
2023-04-13T22:58:09.874Z,8.50
2023-04-13T23:03:13.348Z,7.23
2023-04-13T23:08:15.985Z,11.80
2023-04-13T23:13:18.421Z,9.77
2023-04-13T23:18:20.826Z,11.93
2023-04-13T23:23:23.322Z,10.40
2023-04-13T23:28:25.900Z,13.13
2023-04-13T23:33:29.410Z,13.43
2023-04-13T23:38:32.785Z,10.27
2023-04-13T23:43:35.648Z,11.93
2023-04-13T23:48:38.135Z,11.63
2023-04-13T23:53:40.694Z,12.23
2023-04-13T23:58:43.166Z,11.90
